createdAt,value
2022-09-24T00:01:40.941Z,100438.64
2022-09-24T00:04:11.769Z,100435.61
2022-09-24T00:06:44.590Z,100441.44
2022-09-24T00:09:13.895Z,100439.64
2022-09-24T00:11:42.634Z,100437.13
2022-09-24T00:14:09.291Z,100436.20
2022-09-24T00:16:36.034Z,100436.11
2022-09-24T00:19:04.869Z,100431.34
2022-09-24T00:21:35.032Z,100430.94
2022-09-24T00:24:06.554Z,100428.15
2022-09-24T00:26:51.842Z,100430.73
2022-09-24T00:29:22.273Z,100429.02
2022-09-24T00:31:52.075Z,100427.27
2022-09-24T00:34:19.951Z,100426.17
2022-09-24T00:36:48.009Z,100422.13
2022-09-24T00:39:16.490Z,100427.16
2022-09-24T00:41:46.756Z,100423.92
2022-09-24T00:44:44.789Z,100418.00
2022-09-24T00:47:27.103Z,100414.67
2022-09-24T00:50:30.825Z,100414.82
2022-09-24T00:53:07.173Z,100418.40
2022-09-24T00:55:36.430Z,100416.06
2022-09-24T00:58:26.091Z,100415.08
2022-09-24T01:01:05.137Z,100413.55
2022-09-24T01:03:35.948Z,100411.52
2022-09-24T01:06:02.702Z,100407.47
2022-09-24T01:08:29.309Z,100409.35
2022-09-24T01:10:55.814Z,100407.52
2022-09-24T01:13:56.218Z,100407.11
2022-09-24T01:16:25.723Z,100412.12
2022-09-24T01:19:11.155Z,100408.42
2022-09-24T01:22:02.972Z,100408.51
2022-09-24T01:24:44.879Z,100404.38
2022-09-24T01:27:22.879Z,100401.54
2022-09-24T01:30:01.980Z,100404.34
2022-09-24T01:32:54.980Z,100399.48
2022-09-24T01:35:33.923Z,100401.39
2022-09-24T01:38:06.539Z,100402.64
2022-09-24T01:40:35.377Z,100399.77
2022-09-24T01:43:05.341Z,100397.81
2022-09-24T01:45:43.138Z,100394.82
2022-09-24T01:48:10.399Z,100394.27
2022-09-24T01:51:00.275Z,100395.56
2022-09-24T01:53:35.471Z,100395.47
2022-09-24T01:56:10.350Z,100395.92
2022-09-24T01:59:11.182Z,100396.36
2022-09-24T02:01:48.103Z,100398.00
2022-09-24T02:04:19.436Z,100395.58
2022-09-24T02:06:55.371Z,100393.69
2022-09-24T02:09:34.296Z,100395.66
2022-09-24T02:12:19.358Z,100395.07
2022-09-24T02:14:57.480Z,100394.59
2022-09-24T02:17:28.608Z,100394.50
2022-09-24T02:19:58.521Z,100392.46
2022-09-24T02:22:25.710Z,100389.48
2022-09-24T02:24:58.265Z,100393.20
2022-09-24T02:27:28.469Z,100393.56
2022-09-24T02:29:59.746Z,100392.58
2022-09-24T02:32:30.686Z,100389.84
2022-09-24T02:35:05.379Z,100394.71
2022-09-24T02:37:43.994Z,100393.86
2022-09-24T02:40:14.191Z,100391.49
2022-09-24T02:42:42.292Z,100389.20
2022-09-24T02:45:10.160Z,100391.86
2022-09-24T02:47:37.199Z,100386.00
2022-09-24T02:50:04.663Z,100386.60
2022-09-24T02:52:31.448Z,100386.88
2022-09-24T02:54:58.093Z,100387.52
2022-09-24T02:57:24.929Z,100383.26
2022-09-24T02:59:51.845Z,100381.09
2022-09-24T03:02:18.773Z,100380.66
2022-09-24T03:04:46.708Z,100380.18
2022-09-24T03:07:14.366Z,100382.61
2022-09-24T03:09:41.154Z,100382.68
2022-09-24T03:12:08.340Z,100383.08
2022-09-24T03:14:35.134Z,100385.23
2022-09-24T03:17:01.873Z,100381.10
2022-09-24T03:19:29.015Z,100379.63
2022-09-24T03:21:55.958Z,100375.67
2022-09-24T03:24:22.600Z,100373.30
2022-09-24T03:26:49.361Z,100373.27
2022-09-24T03:29:16.418Z,100377.77
2022-09-24T03:31:44.094Z,100375.17
2022-09-24T03:34:11.175Z,100370.77
2022-09-24T03:36:38.035Z,100373.36
2022-09-24T03:39:05.185Z,100369.60
2022-09-24T03:41:31.815Z,100370.24
2022-09-24T03:43:58.565Z,100372.98
2022-09-24T03:46:27.841Z,100370.64
2022-09-24T03:48:55.732Z,100374.72
2022-09-24T03:51:22.586Z,100372.73
2022-09-24T03:53:49.464Z,100373.55
2022-09-24T03:56:16.372Z,100374.80
2022-09-24T03:58:47.778Z,100372.79
2022-09-24T04:01:20.775Z,100374.80
2022-09-24T04:03:49.822Z,100377.21
2022-09-24T04:06:18.743Z,100375.08
2022-09-24T04:08:49.008Z,100371.86
2022-09-24T04:11:16.615Z,100368.18
2022-09-24T04:13:44.025Z,100370.95
2022-09-24T04:16:10.859Z,100371.40
2022-09-24T04:18:39.579Z,100372.09
2022-09-24T04:21:06.929Z,100375.64
2022-09-24T04:23:33.852Z,100374.58
2022-09-24T04:26:01.734Z,100369.96
2022-09-24T04:28:30.201Z,100371.44
2022-09-24T04:30:57.977Z,100368.41
2022-09-24T04:33:24.794Z,100367.54
2022-09-24T04:35:51.638Z,100372.60
2022-09-24T04:38:20.989Z,100376.96
2022-09-24T04:40:48.113Z,100373.10
2022-09-24T04:43:14.930Z,100375.42
2022-09-24T04:45:44.639Z,100373.13
2022-09-24T04:48:12.196Z,100375.45
2022-09-24T04:50:43.294Z,100375.13
2022-09-24T04:53:12.739Z,100373.19
2022-09-24T04:55:41.120Z,100378.19
2022-09-24T04:58:08.985Z,100377.80
2022-09-24T05:00:36.059Z,100381.58
2022-09-24T05:03:03.232Z,100382.33
2022-09-24T05:05:31.973Z,100381.29
2022-09-24T05:08:00.147Z,100381.61
2022-09-24T05:10:28.618Z,100384.55
2022-09-24T05:12:55.366Z,100389.20
2022-09-24T05:15:22.147Z,100383.84
2022-09-24T05:17:48.964Z,100386.05
2022-09-24T05:20:18.804Z,100387.61
2022-09-24T05:22:47.437Z,100390.77
2022-09-24T05:25:15.981Z,100390.89
2022-09-24T05:28:00.786Z,100384.98
2022-09-24T05:30:27.688Z,100385.66
2022-09-24T05:32:54.419Z,100388.79
2022-09-24T05:35:23.394Z,100387.76
2022-09-24T05:37:52.969Z,100385.11
2022-09-24T05:40:55.288Z,100384.16
2022-09-24T05:43:21.996Z,100382.09
2022-09-24T05:45:49.746Z,100374.80
2022-09-24T05:48:16.900Z,100375.61
2022-09-24T05:50:43.742Z,100377.02
2022-09-24T05:53:10.805Z,100379.09
2022-09-24T05:55:37.474Z,100380.73
2022-09-24T05:58:10.424Z,100383.25
2022-09-24T06:00:37.528Z,100386.49
2022-09-24T06:03:12.423Z,100387.68
2022-09-24T06:05:46.771Z,100390.19
2022-09-24T06:08:15.048Z,100389.46
2022-09-24T06:10:45.081Z,100394.75
2022-09-24T06:13:13.688Z,100397.79
2022-09-24T06:15:41.845Z,100402.86
2022-09-24T06:18:10.192Z,100400.30
2022-09-24T06:20:38.131Z,100398.41
2022-09-24T06:23:05.982Z,100407.07
2022-09-24T06:25:33.068Z,100407.17
2022-09-24T06:28:02.990Z,100405.83
2022-09-24T06:30:33.761Z,100405.55
2022-09-24T06:33:08.026Z,100404.48
2022-09-24T06:35:41.082Z,100407.84
2022-09-24T06:38:11.557Z,100408.59
2022-09-24T06:40:38.709Z,100405.23
2022-09-24T06:43:06.856Z,100411.46
2022-09-24T06:45:34.276Z,100409.16
2022-09-24T06:48:02.570Z,100414.00
2022-09-24T06:50:31.310Z,100414.41
2022-09-24T06:52:58.529Z,100418.30
2022-09-24T06:55:25.078Z,100419.09
2022-09-24T06:58:05.474Z,100422.13
2022-09-24T07:00:32.994Z,100423.43
2022-09-24T07:03:00.595Z,100423.21
2022-09-24T07:05:27.339Z,100422.20
2022-09-24T07:07:54.014Z,100428.87
2022-09-24T07:10:20.845Z,100425.18
2022-09-24T07:12:47.763Z,100423.92
2022-09-24T07:15:14.503Z,100428.06
2022-09-24T07:17:41.440Z,100428.60
2022-09-24T07:20:08.702Z,100429.78
2022-09-24T07:22:39.835Z,100429.11
2022-09-24T07:25:11.802Z,100426.45
2022-09-24T07:27:39.059Z,100430.30
2022-09-24T07:30:08.005Z,100433.23
2022-09-24T07:32:35.910Z,100430.88
2022-09-24T07:35:02.687Z,100429.46
2022-09-24T07:37:32.071Z,100429.88
2022-09-24T07:39:59.125Z,100436.73
2022-09-24T07:42:26.005Z,100432.27
2022-09-24T07:44:52.648Z,100434.53
2022-09-24T07:47:19.505Z,100437.20
2022-09-24T07:49:46.175Z,100435.54
2022-09-24T07:52:13.326Z,100435.21
2022-09-24T07:54:41.380Z,100432.14
2022-09-24T07:57:14.938Z,100433.92
2022-09-24T07:59:44.218Z,100435.54
2022-09-24T08:02:16.860Z,100432.95
2022-09-24T08:04:44.419Z,100434.35
2022-09-24T08:07:13.717Z,100429.02
2022-09-24T08:09:40.498Z,100428.93
2022-09-24T08:12:07.840Z,100429.42
2022-09-24T08:14:34.724Z,100430.72
2022-09-24T08:17:02.207Z,100434.66
2022-09-24T08:19:30.885Z,100439.34
2022-09-24T08:21:58.220Z,100440.23
2022-09-24T08:24:25.711Z,100442.10
2022-09-24T08:26:52.498Z,100443.84
2022-09-24T08:29:19.409Z,100449.02
2022-09-24T08:31:46.236Z,100448.11
2022-09-24T08:34:14.327Z,100439.79
2022-09-24T08:36:43.150Z,100442.04
2022-09-24T08:39:13.315Z,100443.49
2022-09-24T08:41:57.561Z,100446.86
2022-09-24T08:45:04.901Z,100447.95
2022-09-24T08:47:43.056Z,100449.33
2022-09-24T08:50:17.782Z,100447.40
2022-09-24T08:52:58.554Z,100448.55
2022-09-24T08:55:38.195Z,100450.54
2022-09-24T08:58:11.237Z,100449.88
2022-09-24T09:00:56.317Z,100453.33
2022-09-24T09:03:36.728Z,100451.11
2022-09-24T09:06:18.843Z,100450.23
2022-09-24T09:09:06.897Z,100450.55
2022-09-24T09:11:37.465Z,100449.70
2022-09-24T09:14:19.315Z,100445.59
2022-09-24T09:16:55.132Z,100443.38
2022-09-24T09:19:35.181Z,100446.83
2022-09-24T09:22:15.767Z,100449.31
2022-09-24T09:24:49.988Z,100452.29
2022-09-24T09:27:19.704Z,100451.77
2022-09-24T09:29:54.261Z,100453.52
2022-09-24T09:32:21.036Z,100446.40
2022-09-24T09:35:03.005Z,100443.58
2022-09-24T09:38:07.706Z,100442.20
2022-09-24T09:40:47.917Z,100446.11
2022-09-24T09:43:15.093Z,100440.37
2022-09-24T09:46:13.203Z,100440.11
2022-09-24T09:48:53.968Z,100440.40
2022-09-24T09:51:25.639Z,100442.97
2022-09-24T09:53:59.498Z,100443.26
2022-09-24T09:56:30.777Z,100442.02
2022-09-24T09:59:07.666Z,100442.06
2022-09-24T10:01:37.710Z,100441.91
2022-09-24T10:04:05.218Z,100445.21
2022-09-24T10:06:34.960Z,100445.55
2022-09-24T10:09:14.607Z,100442.45
2022-09-24T10:11:41.850Z,100440.23
2022-09-24T10:14:14.631Z,100437.95
2022-09-24T10:16:48.370Z,100429.98
2022-09-24T10:19:24.736Z,100422.61
2022-09-24T10:21:55.152Z,100424.48
2022-09-24T10:24:24.792Z,100427.17
2022-09-24T10:26:53.170Z,100426.14
2022-09-24T10:29:46.606Z,100427.64
2022-09-24T10:32:25.955Z,100430.86
2022-09-24T10:35:18.436Z,100426.52
2022-09-24T10:37:57.897Z,100430.94
2022-09-24T10:40:40.409Z,100426.48
2022-09-24T10:43:15.313Z,100422.38
2022-09-24T10:46:01.121Z,100421.33
2022-09-24T10:48:45.704Z,100417.93
2022-09-24T10:51:29.321Z,100415.54
2022-09-24T10:54:15.312Z,100414.06
2022-09-24T10:56:55.197Z,100414.30
2022-09-24T10:59:54.419Z,100413.36
2022-09-24T11:02:28.511Z,100414.67
2022-09-24T11:05:23.595Z,100414.45
2022-09-24T11:08:25.882Z,100414.04
2022-09-24T11:11:25.648Z,100411.92
2022-09-24T11:14:08.578Z,100408.50
2022-09-24T11:17:17.119Z,100408.75
2022-09-24T11:19:49.998Z,100402.55
2022-09-24T11:22:38.555Z,100400.61
2022-09-24T11:25:42.710Z,100398.59
2022-09-24T11:28:16.418Z,100396.33
2022-09-24T11:31:15.920Z,100394.94
2022-09-24T11:34:01.434Z,100391.54
2022-09-24T11:36:40.197Z,100393.13
2022-09-24T11:39:38.876Z,100390.96
2022-09-24T11:42:19.447Z,100390.62
2022-09-24T11:45:15.835Z,100387.77
2022-09-24T11:48:10.492Z,100386.27
2022-09-24T11:51:02.494Z,100383.96
2022-09-24T11:53:39.985Z,100382.27
2022-09-24T11:56:15.502Z,100382.15
2022-09-24T11:58:58.575Z,100385.55
2022-09-24T12:01:33.445Z,100384.77
2022-09-24T12:04:13.137Z,100385.00
2022-09-24T12:06:59.975Z,100382.70
2022-09-24T12:09:38.478Z,100386.18
2022-09-24T12:12:19.631Z,100382.98
2022-09-24T12:14:55.465Z,100379.04
2022-09-24T12:17:46.423Z,100373.02
2022-09-24T12:20:20.485Z,100370.12
2022-09-24T12:22:52.149Z,100369.73
2022-09-24T12:25:19.404Z,100369.77
2022-09-24T12:27:47.638Z,100367.65
2022-09-24T12:30:58.591Z,100367.48
2022-09-24T12:33:53.689Z,100363.64
2022-09-24T12:36:27.616Z,100368.61
2022-09-24T12:39:01.957Z,100373.52
2022-09-24T12:41:32.014Z,100375.93
2022-09-24T12:44:01.295Z,100368.96
2022-09-24T12:46:37.960Z,100364.34
2022-09-24T12:49:31.228Z,100362.34
2022-09-24T12:52:18.666Z,100361.34
2022-09-24T12:54:45.934Z,100353.56
2022-09-24T12:57:25.262Z,100352.61
2022-09-24T13:00:04.444Z,100350.84
2022-09-24T13:02:45.842Z,100346.22
2022-09-24T13:05:22.123Z,100345.35
2022-09-24T13:08:16.520Z,100349.04
2022-09-24T13:11:00.349Z,100349.16
2022-09-24T13:13:31.440Z,100349.55
2022-09-24T13:16:15.882Z,100351.16
2022-09-24T13:18:50.350Z,100352.23
2022-09-24T13:21:24.780Z,100353.30
2022-09-24T13:23:52.217Z,100350.21
2022-09-24T13:26:24.629Z,100348.81
2022-09-24T13:28:58.674Z,100351.88
2022-09-24T13:31:27.103Z,100347.05
2022-09-24T13:34:03.535Z,100340.33
2022-09-24T13:36:41.920Z,100340.40
2022-09-24T13:39:34.649Z,100337.30
2022-09-24T13:42:37.234Z,100337.70
2022-09-24T13:45:15.563Z,100340.21
2022-09-24T13:47:51.578Z,100337.30
2022-09-24T13:50:31.976Z,100334.52
2022-09-24T13:53:07.163Z,100330.96
2022-09-24T13:55:45.169Z,100331.44
2022-09-24T13:58:30.586Z,100334.59
2022-09-24T14:01:00.104Z,100329.43
2022-09-24T14:03:32.923Z,100323.95
2022-09-24T14:06:05.149Z,100320.83
2022-09-24T14:08:32.758Z,100321.48
2022-09-24T14:11:12.915Z,100319.11
2022-09-24T14:13:45.559Z,100322.14
2022-09-24T14:16:19.395Z,100323.77
2022-09-24T14:18:47.319Z,100319.34
2022-09-24T14:21:35.255Z,100316.59
2022-09-24T14:24:28.264Z,100313.83
2022-09-24T14:27:09.506Z,100314.42
2022-09-24T14:30:04.231Z,100314.52
2022-09-24T14:32:42.061Z,100308.14
2022-09-24T14:35:31.809Z,100310.39
2022-09-24T14:38:15.859Z,100314.89
2022-09-24T14:40:51.472Z,100314.09
2022-09-24T14:43:31.291Z,100315.96
2022-09-24T14:46:06.676Z,100318.98
2022-09-24T14:48:34.865Z,100316.02
2022-09-24T14:51:01.735Z,100315.95
2022-09-24T14:53:34.716Z,100312.95
2022-09-24T14:56:29.874Z,100311.63
2022-09-24T14:58:57.025Z,100307.27
2022-09-24T15:01:31.205Z,100308.53
2022-09-24T15:04:05.168Z,100308.60
2022-09-24T15:06:34.812Z,100304.28
2022-09-24T15:09:24.665Z,100303.39
2022-09-24T15:11:55.181Z,100304.75
2022-09-24T15:14:27.006Z,100300.61
2022-09-24T15:16:54.981Z,100298.52
2022-09-24T15:19:28.292Z,100296.83
2022-09-24T15:21:59.950Z,100297.83
2022-09-24T15:24:26.838Z,100297.11
2022-09-24T15:27:06.236Z,100301.32
2022-09-24T15:29:33.799Z,100298.64
2022-09-24T15:32:00.998Z,100296.47
2022-09-24T15:34:28.776Z,100297.22
2022-09-24T15:36:58.891Z,100297.83
2022-09-24T15:39:27.765Z,100298.30
2022-09-24T15:41:54.571Z,100297.35
2022-09-24T15:44:29.690Z,100297.77
2022-09-24T15:47:03.125Z,100298.75
2022-09-24T15:49:30.889Z,100296.33
2022-09-24T15:52:24.016Z,100291.70
2022-09-24T15:54:51.959Z,100289.39
2022-09-24T15:57:18.811Z,100293.39
2022-09-24T15:59:45.675Z,100290.27
2022-09-24T16:02:18.710Z,100291.65
2022-09-24T16:04:45.919Z,100287.93
2022-09-24T16:07:12.762Z,100287.64
2022-09-24T16:09:40.344Z,100286.94
2022-09-24T16:12:06.979Z,100282.44
2022-09-24T16:14:33.722Z,100285.73
2022-09-24T16:17:00.481Z,100288.13
2022-09-24T16:19:31.135Z,100285.58
2022-09-24T16:21:59.293Z,100290.59
2022-09-24T16:24:26.439Z,100288.59
2022-09-24T16:26:53.109Z,100291.45
2022-09-24T16:29:20.039Z,100288.23
2022-09-24T16:31:49.005Z,100287.95
2022-09-24T16:34:15.971Z,100286.76
2022-09-24T16:36:42.756Z,100285.95
2022-09-24T16:39:10.111Z,100291.45
2022-09-24T16:41:37.476Z,100286.85
2022-09-24T16:44:04.374Z,100284.89
2022-09-24T16:46:31.429Z,100285.55
2022-09-24T16:48:58.237Z,100281.92
2022-09-24T16:51:24.905Z,100282.51
2022-09-24T16:53:55.990Z,100283.19
2022-09-24T16:56:23.779Z,100284.38
2022-09-24T16:58:52.009Z,100287.85
2022-09-24T17:01:20.716Z,100285.33
2022-09-24T17:03:55.622Z,100280.97
2022-09-24T17:06:27.947Z,100282.96
2022-09-24T17:09:14.386Z,100279.11
2022-09-24T17:11:41.948Z,100279.67
2022-09-24T17:14:11.850Z,100278.80
2022-09-24T17:16:43.265Z,100281.23
2022-09-24T17:19:11.475Z,100279.39
2022-09-24T17:21:40.929Z,100279.90
2022-09-24T17:24:09.097Z,100277.09
2022-09-24T17:26:37.912Z,100281.21
2022-09-24T17:29:05.651Z,100279.14
2022-09-24T17:31:33.073Z,100278.71
2022-09-24T17:34:07.089Z,100276.50
2022-09-24T17:36:34.982Z,100280.91
2022-09-24T17:39:02.691Z,100278.86
2022-09-24T17:41:30.102Z,100281.66
2022-09-24T17:43:58.240Z,100281.39
2022-09-24T17:46:30.620Z,100282.07
2022-09-24T17:49:00.056Z,100288.38
2022-09-24T17:51:37.911Z,100288.52
2022-09-24T17:54:08.419Z,100292.13
2022-09-24T17:56:38.696Z,100292.76
2022-09-24T17:59:07.903Z,100291.22
2022-09-24T18:01:36.610Z,100293.61
2022-09-24T18:04:12.867Z,100290.73
2022-09-24T18:06:41.298Z,100295.21
2022-09-24T18:09:10.065Z,100291.40
2022-09-24T18:11:40.578Z,100293.25
2022-09-24T18:14:13.935Z,100297.34
2022-09-24T18:16:41.627Z,100299.81
2022-09-24T18:19:10.497Z,100299.56
2022-09-24T18:21:37.802Z,100302.08
2022-09-24T18:24:04.788Z,100303.20
2022-09-24T18:26:36.344Z,100302.83
2022-09-24T18:29:11.116Z,100301.34
2022-09-24T18:31:40.737Z,100303.48
2022-09-24T18:34:09.317Z,100299.83
2022-09-24T18:36:38.664Z,100297.54
2022-09-24T18:39:07.936Z,100293.73
2022-09-24T18:41:36.605Z,100295.76
2022-09-24T18:44:03.969Z,100296.67
2022-09-24T18:46:32.526Z,100299.09
2022-09-24T18:49:00.334Z,100296.45
2022-09-24T18:51:35.994Z,100299.78
2022-09-24T18:54:06.520Z,100301.88
2022-09-24T18:56:34.476Z,100301.93
2022-09-24T18:59:09.767Z,100304.73
2022-09-24T19:01:41.917Z,100304.42
2022-09-24T19:04:10.236Z,100305.28
2022-09-24T19:06:40.202Z,100307.61
2022-09-24T19:09:12.953Z,100311.48
2022-09-24T19:11:41.535Z,100311.84
2022-09-24T19:14:11.571Z,100312.69
2022-09-24T19:16:39.366Z,100313.84
2022-09-24T19:19:06.549Z,100315.23
2022-09-24T19:21:33.311Z,100313.33
2022-09-24T19:24:00.155Z,100307.89
2022-09-24T19:26:30.481Z,100306.69
2022-09-24T19:28:58.250Z,100307.73
2022-09-24T19:31:38.252Z,100305.55
2022-09-24T19:34:08.072Z,100305.65
2022-09-24T19:36:44.647Z,100309.77
2022-09-24T19:39:17.668Z,100311.67
2022-09-24T19:41:45.228Z,100314.90
2022-09-24T19:44:13.030Z,100312.98
2022-09-24T19:46:40.691Z,100311.04
2022-09-24T19:49:07.798Z,100313.67
2022-09-24T19:51:35.876Z,100312.69
2022-09-24T19:54:08.242Z,100311.47
2022-09-24T19:56:39.537Z,100311.30
2022-09-24T19:59:08.893Z,100311.39
2022-09-24T20:01:36.000Z,100310.05
2022-09-24T20:04:06.361Z,100308.64
2022-09-24T20:06:36.088Z,100308.59
2022-09-24T20:09:03.406Z,100306.39
2022-09-24T20:11:32.205Z,100304.66
2022-09-24T20:14:00.635Z,100298.95
2022-09-24T20:16:33.273Z,100300.39
2022-09-24T20:19:01.404Z,100299.42
2022-09-24T20:21:33.942Z,100297.10
2022-09-24T20:24:03.085Z,100296.81
2022-09-24T20:26:48.794Z,100298.96
2022-09-24T20:29:19.130Z,100295.84
2022-09-24T20:31:52.035Z,100293.96
2022-09-24T20:34:21.821Z,100291.90
2022-09-24T20:36:48.873Z,100289.19
2022-09-24T20:39:17.032Z,100290.47
2022-09-24T20:41:49.121Z,100288.61
2022-09-24T20:44:16.354Z,100292.86
2022-09-24T20:46:43.431Z,100290.37
2022-09-24T20:49:22.089Z,100294.73
2022-09-24T20:51:56.193Z,100291.05
2022-09-24T20:54:39.655Z,100291.91
2022-09-24T20:57:06.614Z,100289.65
2022-09-24T20:59:33.462Z,100292.98
2022-09-24T21:02:00.771Z,100296.66
2022-09-24T21:04:27.738Z,100295.84
2022-09-24T21:06:54.666Z,100294.41
2022-09-24T21:09:21.535Z,100291.10
2022-09-24T21:11:50.520Z,100289.73
2022-09-24T21:14:18.391Z,100287.73
2022-09-24T21:16:47.080Z,100294.66
2022-09-24T21:19:15.517Z,100293.17
2022-09-24T21:21:42.718Z,100299.03
2022-09-24T21:24:13.874Z,100296.61
2022-09-24T21:26:42.329Z,100298.24
2022-09-24T21:29:22.279Z,100300.54
2022-09-24T21:31:49.218Z,100300.14
2022-09-24T21:34:22.616Z,100300.83
2022-09-24T21:36:51.917Z,100298.42
2022-09-24T21:39:22.613Z,100300.14
2022-09-24T21:41:52.553Z,100296.52
2022-09-24T21:44:19.528Z,100292.52
2022-09-24T21:46:48.062Z,100295.07
2022-09-24T21:49:16.609Z,100295.70
2022-09-24T21:51:44.752Z,100294.52
2022-09-24T21:54:15.985Z,100298.20
2022-09-24T21:56:43.759Z,100296.43
2022-09-24T21:59:36.614Z,100296.41
2022-09-24T22:02:04.090Z,100296.84
2022-09-24T22:04:33.726Z,100294.50
2022-09-24T22:07:00.583Z,100291.61
2022-09-24T22:09:28.893Z,100291.95
2022-09-24T22:11:57.309Z,100293.19
2022-09-24T22:14:24.112Z,100291.27
2022-09-24T22:16:51.224Z,100292.63
2022-09-24T22:19:19.147Z,100290.23
2022-09-24T22:21:46.407Z,100290.92
2022-09-24T22:24:15.574Z,100289.31
2022-09-24T22:26:42.627Z,100289.73
2022-09-24T22:29:09.360Z,100289.85
2022-09-24T22:31:35.998Z,100292.48
2022-09-24T22:34:21.495Z,100291.83
2022-09-24T22:36:48.520Z,100288.48
2022-09-24T22:39:15.279Z,100289.83
2022-09-24T22:41:43.636Z,100284.55
2022-09-24T22:44:11.564Z,100280.92
2022-09-24T22:46:39.138Z,100281.98
2022-09-24T22:49:06.425Z,100278.89
2022-09-24T22:51:33.499Z,100276.47
2022-09-24T22:54:00.825Z,100275.72
2022-09-24T22:56:29.506Z,100278.87
2022-09-24T22:59:00.560Z,100276.92
2022-09-24T23:01:34.602Z,100275.31
2022-09-24T23:04:02.014Z,100272.08
2022-09-24T23:06:35.124Z,100268.43
2022-09-24T23:09:02.256Z,100266.31
2022-09-24T23:11:31.968Z,100266.80
2022-09-24T23:14:02.630Z,100268.97
2022-09-24T23:16:32.094Z,100270.52
2022-09-24T23:19:01.298Z,100270.64
2022-09-24T23:21:30.999Z,100270.90
2022-09-24T23:24:06.972Z,100266.48
2022-09-24T23:26:34.056Z,100264.55
2022-09-24T23:29:01.973Z,100266.81
2022-09-24T23:31:31.553Z,100263.05
2022-09-24T23:34:00.701Z,100263.22
2022-09-24T23:36:30.529Z,100262.73
2022-09-24T23:38:59.271Z,100263.86
2022-09-24T23:41:28.475Z,100262.91
2022-09-24T23:44:01.563Z,100261.48
2022-09-24T23:46:29.679Z,100260.17
2022-09-24T23:48:56.902Z,100258.36
2022-09-24T23:51:24.093Z,100257.79
2022-09-24T23:53:51.399Z,100257.07
2022-09-24T23:56:19.763Z,100257.28
2022-09-24T23:58:47.218Z,100255.77
